sensor_id;sensor_type;location;lat;lon;timestamp;pressure;altitude;pressure_sealevel;temperature;humidity
6942;BME280;3510;43.200;27.920;2023-12-20T00:00:14;101360.56;;;4.32;100.00
6942;BME280;3510;43.200;27.920;2023-12-20T00:02:41;101359.31;;;4.29;100.00
6942;BME280;3510;43.200;27.920;2023-12-20T00:05:12;101359.31;;;4.22;100.00
6942;BME280;3510;43.200;27.920;2023-12-20T00:07:40;101354.50;;;4.16;100.00
6942;BME280;3510;43.200;27.920;2023-12-20T00:10:07;101329.03;;;4.11;100.00
6942;BME280;3510;43.200;27.920;2023-12-20T00:12:34;101323.72;;;4.08;100.00
6942;BME280;3510;43.200;27.920;2023-12-20T00:15:01;101344.91;;;4.12;100.00
6942;BME280;3510;43.200;27.920;2023-12-20T00:17:27;101340.06;;;4.06;100.00
6942;BME280;3510;43.200;27.920;2023-12-20T00:19:53;101336.16;;;4.01;100.00
6942;BME280;3510;43.200;27.920;2023-12-20T00:22:20;101334.03;;;3.97;100.00
6942;BME280;3510;43.200;27.920;2023-12-20T00:24:48;101336.84;;;4.00;100.00
6942;BME280;3510;43.200;27.920;2023-12-20T00:27:15;101337.94;;;4.09;100.00
6942;BME280;3510;43.200;27.920;2023-12-20T00:29:41;101329.06;;;4.04;100.00
6942;BME280;3510;43.200;27.920;2023-12-20T00:32:09;101313.91;;;4.03;100.00
6942;BME280;3510;43.200;27.920;2023-12-20T00:34:36;101324.41;;;3.86;100.00
6942;BME280;3510;43.200;27.920;2023-12-20T00:37:02;101315.84;;;3.84;100.00
6942;BME280;3510;43.200;27.920;2023-12-20T00:39:29;101307.66;;;3.85;100.00
6942;BME280;3510;43.200;27.920;2023-12-20T00:41:57;101303.56;;;3.85;100.00
6942;BME280;3510;43.200;27.920;2023-12-20T00:44:23;101304.66;;;3.87;100.00
6942;BME280;3510;43.200;27.920;2023-12-20T00:46:50;101302.00;;;3.86;100.00
6942;BME280;3510;43.200;27.920;2023-12-20T00:49:16;101307.13;;;3.87;100.00
6942;BME280;3510;43.200;27.920;2023-12-20T00:51:44;101300.19;;;3.85;100.00
6942;BME280;3510;43.200;27.920;2023-12-20T00:54:12;101299.13;;;3.83;100.00
6942;BME280;3510;43.200;27.920;2023-12-20T00:56:38;101300.91;;;3.84;100.00
6942;BME280;3510;43.200;27.920;2023-12-20T00:59:06;101294.84;;;3.82;100.00
6942;BME280;3510;43.200;27.920;2023-12-20T01:01:33;101292.03;;;3.86;100.00
6942;BME280;3510;43.200;27.920;2023-12-20T01:04:00;101293.06;;;3.81;100.00
6942;BME280;3510;43.200;27.920;2023-12-20T01:06:26;101281.72;;;3.90;100.00
6942;BME280;3510;43.200;27.920;2023-12-20T01:08:53;101278.50;;;3.91;100.00
6942;BME280;3510;43.200;27.920;2023-12-20T01:11:19;101281.88;;;3.92;100.00
6942;BME280;3510;43.200;27.920;2023-12-20T01:13:46;101279.91;;;3.89;100.00
6942;BME280;3510;43.200;27.920;2023-12-20T01:16:13;101280.13;;;3.91;100.00
6942;BME280;3510;43.200;27.920;2023-12-20T01:18:39;101276.75;;;3.90;100.00
6942;BME280;3510;43.200;27.920;2023-12-20T01:21:06;101273.16;;;3.88;100.00
6942;BME280;3510;43.200;27.920;2023-12-20T01:23:32;101271.22;;;3.78;100.00
6942;BME280;3510;43.200;27.920;2023-12-20T01:25:59;101260.34;;;3.78;100.00
6942;BME280;3510;43.200;27.920;2023-12-20T01:28:26;101256.28;;;3.78;100.00
6942;BME280;3510;43.200;27.920;2023-12-20T01:30:52;101258.22;;;3.81;100.00
6942;BME280;3510;43.200;27.920;2023-12-20T01:33:20;101252.00;;;3.84;100.00
6942;BME280;3510;43.200;27.920;2023-12-20T01:35:46;101254.50;;;3.84;100.00
6942;BME280;3510;43.200;27.920;2023-12-20T01:38:13;101248.47;;;3.82;100.00
6942;BME280;3510;43.200;27.920;2023-12-20T01:40:39;101236.56;;;3.87;100.00
6942;BME280;3510;43.200;27.920;2023-12-20T01:43:07;101233.72;;;3.91;100.00
6942;BME280;3510;43.200;27.920;2023-12-20T01:45:33;101231.06;;;3.90;100.00
6942;BME280;3510;43.200;27.920;2023-12-20T01:48:00;101223.91;;;3.85;100.00
6942;BME280;3510;43.200;27.920;2023-12-20T01:50:29;101222.66;;;3.89;100.00
6942;BME280;3510;43.200;27.920;2023-12-20T01:52:57;101205.44;;;3.83;100.00
6942;BME280;3510;43.200;27.920;2023-12-20T01:55:24;101206.50;;;3.78;100.00
6942;BME280;3510;43.200;27.920;2023-12-20T01:57:51;101202.94;;;3.76;100.00
6942;BME280;3510;43.200;27.920;2023-12-20T02:00:18;101192.09;;;3.69;100.00
6942;BME280;3510;43.200;27.920;2023-12-20T02:02:48;101190.47;;;3.62;100.00
6942;BME280;3510;43.200;27.920;2023-12-20T02:05:15;101191.34;;;3.55;100.00
6942;BME280;3510;43.200;27.920;2023-12-20T02:07:43;101189.03;;;3.50;100.00
6942;BME280;3510;43.200;27.920;2023-12-20T02:10:10;101173.78;;;3.54;100.00
6942;BME280;3510;43.200;27.920;2023-12-20T02:12:37;101175.53;;;3.55;100.00
6942;BME280;3510;43.200;27.920;2023-12-20T02:15:03;101168.44;;;3.51;100.00
6942;BME280;3510;43.200;27.920;2023-12-20T02:17:30;101161.84;;;3.51;100.00
6942;BME280;3510;43.200;27.920;2023-12-20T02:19:57;101154.03;;;3.48;100.00
6942;BME280;3510;43.200;27.920;2023-12-20T02:22:25;101148.53;;;3.51;100.00
6942;BME280;3510;43.200;27.920;2023-12-20T02:24:52;101147.28;;;3.54;100.00
6942;BME280;3510;43.200;27.920;2023-12-20T02:27:18;101148.38;;;3.56;100.00
6942;BME280;3510;43.200;27.920;2023-12-20T02:29:46;101135.22;;;3.57;100.00
6942;BME280;3510;43.200;27.920;2023-12-20T02:32:13;101141.25;;;3.59;100.00
6942;BME280;3510;43.200;27.920;2023-12-20T02:34:39;101131.66;;;3.62;100.00
6942;BME280;3510;43.200;27.920;2023-12-20T02:37:06;101131.66;;;3.62;100.00
6942;BME280;3510;43.200;27.920;2023-12-20T02:42:15;101126.16;;;3.65;100.00
6942;BME280;3510;43.200;27.920;2023-12-20T02:44:42;101121.69;;;3.62;100.00
6942;BME280;3510;43.200;27.920;2023-12-20T02:47:08;101114.59;;;3.58;100.00
6942;BME280;3510;43.200;27.920;2023-12-20T02:49:34;101121.53;;;3.54;100.00
6942;BME280;3510;43.200;27.920;2023-12-20T02:52:01;101115.31;;;3.50;100.00
6942;BME280;3510;43.200;27.920;2023-12-20T02:54:27;101111.41;;;3.52;100.00
6942;BME280;3510;43.200;27.920;2023-12-20T02:57:08;101119.75;;;3.53;100.00
6942;BME280;3510;43.200;27.920;2023-12-20T03:02:31;101115.13;;;3.49;100.00
6942;BME280;3510;43.200;27.920;2023-12-20T03:05:01;101119.56;;;3.44;100.00
6942;BME280;3510;43.200;27.920;2023-12-20T03:07:28;101115.66;;;3.46;100.00
6942;BME280;3510;43.200;27.920;2023-12-20T03:09:57;101116.53;;;3.47;100.00
6942;BME280;3510;43.200;27.920;2023-12-20T03:12:24;101120.28;;;3.57;100.00
6942;BME280;3510;43.200;27.920;2023-12-20T03:14:50;101117.44;;;3.61;100.00
6942;BME280;3510;43.200;27.920;2023-12-20T03:17:17;101116.38;;;3.67;100.00
6942;BME280;3510;43.200;27.920;2023-12-20T03:19:47;101116.72;;;3.62;100.00
6942;BME280;3510;43.200;27.920;2023-12-20T03:22:14;101112.81;;;3.64;100.00
6942;BME280;3510;43.200;27.920;2023-12-20T03:24:41;101114.94;;;3.69;100.00
6942;BME280;3510;43.200;27.920;2023-12-20T03:27:07;101120.09;;;3.63;100.00
6942;BME280;3510;43.200;27.920;2023-12-20T03:29:34;101120.28;;;3.57;100.00
6942;BME280;3510;43.200;27.920;2023-12-20T03:32:00;101119.03;;;3.54;100.00
6942;BME280;3510;43.200;27.920;2023-12-20T03:34:27;101117.78;;;3.43;100.00
6942;BME280;3510;43.200;27.920;2023-12-20T03:36:55;101105.88;;;3.40;100.00
6942;BME280;3510;43.200;27.920;2023-12-20T03:39:22;101103.59;;;3.49;100.00
6942;BME280;3510;43.200;27.920;2023-12-20T03:41:48;101106.25;;;3.58;100.00
6942;BME280;3510;43.200;27.920;2023-12-20T03:44:14;101109.09;;;3.61;100.00
6942;BME280;3510;43.200;27.920;2023-12-20T03:46:41;101110.50;;;3.59;100.00
6942;BME280;3510;43.200;27.920;2023-12-20T03:49:07;101104.13;;;3.61;100.00
6942;BME280;3510;43.200;27.920;2023-12-20T03:51:34;101103.41;;;3.62;100.00
6942;BME280;3510;43.200;27.920;2023-12-20T03:54:02;101100.75;;;3.60;100.00
6942;BME280;3510;43.200;27.920;2023-12-20T03:56:28;101099.66;;;3.51;100.00
6942;BME280;3510;43.200;27.920;2023-12-20T03:58:55;101100.38;;;3.43;100.00
6942;BME280;3510;43.200;27.920;2023-12-20T04:01:21;101092.38;;;3.38;100.00
6942;BME280;3510;43.200;27.920;2023-12-20T04:03:48;101092.91;;;3.36;100.00
6942;BME280;3510;43.200;27.920;2023-12-20T04:06:16;101091.66;;;3.39;100.00
6942;BME280;3510;43.200;27.920;2023-12-20T04:08:42;101080.81;;;3.32;100.00
6942;BME280;3510;43.200;27.920;2023-12-20T04:11:10;101082.78;;;3.27;100.00
6942;BME280;3510;43.200;27.920;2023-12-20T04:13:36;101078.34;;;3.25;100.00
6942;BME280;3510;43.200;27.920;2023-12-20T04:16:03;101074.06;;;3.24;100.00
6942;BME280;3510;43.200;27.920;2023-12-20T04:18:29;101062.69;;;3.26;100.00
6942;BME280;3510;43.200;27.920;2023-12-20T04:20:57;101062.69;;;3.26;100.00
6942;BME280;3510;43.200;27.920;2023-12-20T04:23:26;101064.66;;;3.28;100.00
6942;BME280;3510;43.200;27.920;2023-12-20T04:25:53;101072.13;;;3.28;100.00
6942;BME280;3510;43.200;27.920;2023-12-20T04:28:21;101072.44;;;3.10;100.00
6942;BME280;3510;43.200;27.920;2023-12-20T04:30:48;101069.41;;;2.98;100.00
6942;BME280;3510;43.200;27.920;2023-12-20T04:33:15;101064.25;;;2.82;100.00
6942;BME280;3510;43.200;27.920;2023-12-20T04:35:42;101065.09;;;2.69;100.00
6942;BME280;3510;43.200;27.920;2023-12-20T04:38:10;101066.16;;;2.63;100.00
6942;BME280;3510;43.200;27.920;2023-12-20T04:40:37;101055.28;;;2.63;100.00
6942;BME280;3510;43.200;27.920;2023-12-20T04:43:06;101053.16;;;2.59;100.00
6942;BME280;3510;43.200;27.920;2023-12-20T04:45:33;101064.91;;;2.60;100.00
6942;BME280;3510;43.200;27.920;2023-12-20T04:48:00;101061.50;;;2.52;100.00
6942;BME280;3510;43.200;27.920;2023-12-20T04:50:27;101059.31;;;2.48;100.00
6942;BME280;3510;43.200;27.920;2023-12-20T04:52:53;101053.09;;;2.45;100.00
6942;BME280;3510;43.200;27.920;2023-12-20T04:55:20;101056.13;;;2.42;100.00
6942;BME280;3510;43.200;27.920;2023-12-20T04:57:47;101046.53;;;2.38;100.00
6942;BME280;3510;43.200;27.920;2023-12-20T05:00:13;101043.19;;;2.37;100.00
6942;BME280;3510;43.200;27.920;2023-12-20T05:02:41;101047.94;;;2.36;100.00
6942;BME280;3510;43.200;27.920;2023-12-20T05:05:08;101045.09;;;2.40;100.00
6942;BME280;3510;43.200;27.920;2023-12-20T05:07:34;101047.44;;;2.38;100.00
6942;BME280;3510;43.200;27.920;2023-12-20T05:10:01;101041.91;;;2.41;100.00
6942;BME280;3510;43.200;27.920;2023-12-20T05:12:29;101041.94;;;2.48;100.00
6942;BME280;3510;43.200;27.920;2023-12-20T05:14:56;101038.94;;;2.51;100.00
6942;BME280;3510;43.200;27.920;2023-12-20T05:17:23;101030.59;;;2.50;100.00
6942;BME280;3510;43.200;27.920;2023-12-20T05:19:51;101029.53;;;2.48;100.00
6942;BME280;3510;43.200;27.920;2023-12-20T05:22:17;101034.16;;;2.45;100.00
6942;BME280;3510;43.200;27.920;2023-12-20T05:24:45;101036.94;;;2.41;100.00
6942;BME280;3510;43.200;27.920;2023-12-20T05:27:11;101031.47;;;2.43;100.00
6942;BME280;3510;43.200;27.920;2023-12-20T05:29:38;101031.63;;;2.38;100.00
6942;BME280;3510;43.200;27.920;2023-12-20T05:32:04;101027.19;;;2.35;100.00
6942;BME280;3510;43.200;27.920;2023-12-20T05:34:31;101033.41;;;2.39;100.00
6942;BME280;3510;43.200;27.920;2023-12-20T05:36:58;101033.63;;;2.55;100.00
6942;BME280;3510;43.200;27.920;2023-12-20T05:39:26;101024.22;;;2.59;100.00
6942;BME280;3510;43.200;27.920;2023-12-20T05:41:53;101029.56;;;2.62;100.00
6942;BME280;3510;43.200;27.920;2023-12-20T05:44:19;101035.97;;;2.60;100.00
6942;BME280;3510;43.200;27.920;2023-12-20T05:46:46;101037.03;;;2.62;100.00
6942;BME280;3510;43.200;27.920;2023-12-20T05:49:12;101025.34;;;2.69;100.00
6942;BME280;3510;43.200;27.920;2023-12-20T05:51:39;101029.97;;;2.73;100.00
6942;BME280;3510;43.200;27.920;2023-12-20T05:54:07;101029.97;;;2.73;100.00
6942;BME280;3510;43.200;27.920;2023-12-20T05:56:34;101036.53;;;2.79;100.00
6942;BME280;3510;43.200;27.920;2023-12-20T05:59:00;101034.44;;;2.82;100.00
6942;BME280;3510;43.200;27.920;2023-12-20T06:01:27;101023.78;;;2.90;100.00
6942;BME280;3510;43.200;27.920;2023-12-20T06:03:54;101031.06;;;2.96;100.00
6942;BME280;3510;43.200;27.920;2023-12-20T06:06:20;101025.72;;;3.00;100.00
6942;BME280;3510;43.200;27.920;2023-12-20T06:08:47;101028.22;;;3.14;100.00
6942;BME280;3510;43.200;27.920;2023-12-20T06:11:14;101033.56;;;3.25;100.00
6942;BME280;3510;43.200;27.920;2023-12-20T06:13:41;101039.78;;;3.35;100.00
6942;BME280;3510;43.200;27.920;2023-12-20T06:16:08;101030.72;;;3.36;100.00
6942;BME280;3510;43.200;27.920;2023-12-20T06:18:34;101031.81;;;3.38;100.00
6942;BME280;3510;43.200;27.920;2023-12-20T06:21:02;101028.59;;;3.39;100.00
6942;BME280;3510;43.200;27.920;2023-12-20T06:23:28;101036.22;;;3.55;100.00
6942;BME280;3510;43.200;27.920;2023-12-20T06:25:55;101042.28;;;3.50;100.00
6942;BME280;3510;43.200;27.920;2023-12-20T06:28:23;101034.97;;;3.44;100.00
6942;BME280;3510;43.200;27.920;2023-12-20T06:30:50;101041.03;;;3.46;100.00
6942;BME280;3510;43.200;27.920;2023-12-20T06:33:30;101043.00;;;3.49;100.00
6942;BME280;3510;43.200;27.920;2023-12-20T06:35:57;101036.44;;;3.49;100.00
6942;BME280;3510;43.200;27.920;2023-12-20T06:38:23;101043.88;;;3.56;100.00
6942;BME280;3510;43.200;27.920;2023-12-20T06:40:50;101037.44;;;3.73;100.00
6942;BME280;3510;43.200;27.920;2023-12-20T06:43:16;101042.78;;;3.83;100.00
6942;BME280;3510;43.200;27.920;2023-12-20T06:45:44;101035.97;;;3.89;100.00
6942;BME280;3510;43.200;27.920;2023-12-20T06:48:10;101039.88;;;4.01;100.00
6942;BME280;3510;43.200;27.920;2023-12-20T06:50:51;101035.56;;;4.15;100.00
6942;BME280;3510;43.200;27.920;2023-12-20T06:53:20;101033.41;;;4.25;100.00
6942;BME280;3510;43.200;27.920;2023-12-20T06:55:46;101031.56;;;4.38;100.00
6942;BME280;3510;43.200;27.920;2023-12-20T06:58:27;101028.72;;;4.42;100.00
6942;BME280;3510;43.200;27.920;2023-12-20T07:00:56;100991.00;;;4.39;100.00
6942;BME280;3510;43.200;27.920;2023-12-20T07:03:23;101004.84;;;4.74;100.00
6942;BME280;3510;43.200;27.920;2023-12-20T07:06:04;101033.78;;;5.11;100.00
6942;BME280;3510;43.200;27.920;2023-12-20T07:08:44;100995.28;;;5.16;100.00
6942;BME280;3510;43.200;27.920;2023-12-20T07:11:11;101034.19;;;5.53;100.00
6942;BME280;3510;43.200;27.920;2023-12-20T07:13:38;101029.75;;;5.50;100.00
6942;BME280;3510;43.200;27.920;2023-12-20T07:16:06;101012.66;;;5.46;100.00
6942;BME280;3510;43.200;27.920;2023-12-20T07:18:33;101001.75;;;5.30;100.00
6942;BME280;3510;43.200;27.920;2023-12-20T07:21:14;100869.75;;;4.70;100.00
6942;BME280;3510;43.200;27.920;2023-12-20T07:23:41;100982.84;;;5.32;100.00
6942;BME280;3510;43.200;27.920;2023-12-20T07:26:21;101037.38;;;5.75;100.00
6942;BME280;3510;43.200;27.920;2023-12-20T07:29:02;101023.09;;;5.74;100.00
6942;BME280;3510;43.200;27.920;2023-12-20T07:44:11;100969.84;;;7.12;100.00
6942;BME280;3510;43.200;27.920;2023-12-20T07:46:38;101017.31;;;7.69;100.00
6942;BME280;3510;43.200;27.920;2023-12-20T07:49:05;100924.75;;;7.27;100.00
6942;BME280;3510;43.200;27.920;2023-12-20T07:51:33;100989.66;;;7.76;100.00
6942;BME280;3510;43.200;27.920;2023-12-20T07:54:00;100971.69;;;7.72;100.00
6942;BME280;3510;43.200;27.920;2023-12-20T07:56:29;101006.47;;;7.95;100.00
6942;BME280;3510;43.200;27.920;2023-12-20T07:58:56;101010.03;;;8.14;100.00
6942;BME280;3510;43.200;27.920;2023-12-20T08:01:24;101015.94;;;8.23;100.00
6942;BME280;3510;43.200;27.920;2023-12-20T08:03:51;100973.59;;;8.27;100.00
6942;BME280;3510;43.200;27.920;2023-12-20T08:06:17;100981.13;;;8.44;100.00
6942;BME280;3510;43.200;27.920;2023-12-20T08:08:45;100979.94;;;8.58;100.00
6942;BME280;3510;43.200;27.920;2023-12-20T08:11:11;100943.25;;;8.50;100.00
6942;BME280;3510;43.200;27.920;2023-12-20T08:13:39;100990.38;;;8.71;100.00
6942;BME280;3510;43.200;27.920;2023-12-20T08:16:08;100844.19;;;8.01;100.00
6942;BME280;3510;43.200;27.920;2023-12-20T08:18:36;100817.38;;;7.91;100.00
6942;BME280;3510;43.200;27.920;2023-12-20T08:21:03;100988.91;;;8.73;100.00
6942;BME280;3510;43.200;27.920;2023-12-20T08:23:33;100984.31;;;8.78;100.00
6942;BME280;3510;43.200;27.920;2023-12-20T08:26:03;100973.44;;;8.60;100.00
6942;BME280;3510;43.200;27.920;2023-12-20T08:28:31;100979.63;;;8.72;100.00
6942;BME280;3510;43.200;27.920;2023-12-20T08:30:58;100885.28;;;8.20;100.00
6942;BME280;3510;43.200;27.920;2023-12-20T08:33:24;100896.03;;;8.28;100.00
6942;BME280;3510;43.200;27.920;2023-12-20T08:35:52;100891.31;;;8.22;100.00
6942;BME280;3510;43.200;27.920;2023-12-20T08:38:22;100848.75;;;8.05;100.00
6942;BME280;3510;43.200;27.920;2023-12-20T08:40:49;100930.97;;;8.61;100.00
6942;BME280;3510;43.200;27.920;2023-12-20T08:43:15;100919.00;;;8.59;100.00
6942;BME280;3510;43.200;27.920;2023-12-20T08:45:42;100945.59;;;8.93;100.00
6942;BME280;3510;43.200;27.920;2023-12-20T08:48:09;100884.25;;;8.81;100.00
6942;BME280;3510;43.200;27.920;2023-12-20T08:50:36;100931.88;;;9.26;100.00
6942;BME280;3510;43.200;27.920;2023-12-20T08:53:05;100879.44;;;9.01;100.00
6942;BME280;3510;43.200;27.920;2023-12-20T08:55:34;100925.41;;;9.47;100.00
6942;BME280;3510;43.200;27.920;2023-12-20T08:58:01;100919.50;;;9.46;100.00
6942;BME280;3510;43.200;27.920;2023-12-20T09:00:28;100833.63;;;9.04;100.00
6942;BME280;3510;43.200;27.920;2023-12-20T09:02:55;100894.50;;;9.48;100.00
6942;BME280;3510;43.200;27.920;2023-12-20T09:05:22;100893.91;;;9.50;100.00
6942;BME280;3510;43.200;27.920;2023-12-20T09:07:51;100909.31;;;9.63;100.00
6942;BME280;3510;43.200;27.920;2023-12-20T09:10:19;100915.09;;;9.62;100.00
6942;BME280;3510;43.200;27.920;2023-12-20T09:12:47;100881.66;;;9.63;100.00
6942;BME280;3510;43.200;27.920;2023-12-20T09:15:14;100837.50;;;9.47;100.00
6942;BME280;3510;43.200;27.920;2023-12-20T09:17:41;100880.94;;;9.83;100.00
6942;BME280;3510;43.200;27.920;2023-12-20T09:20:09;100861.56;;;9.82;100.00
6942;BME280;3510;43.200;27.920;2023-12-20T09:22:36;100870.13;;;9.84;100.00
6942;BME280;3510;43.200;27.920;2023-12-20T09:25:05;100791.44;;;9.37;100.00
6942;BME280;3510;43.200;27.920;2023-12-20T09:27:33;100860.97;;;9.85;100.00
6942;BME280;3510;43.200;27.920;2023-12-20T09:30:00;100864.22;;;9.84;100.00
6942;BME280;3510;43.200;27.920;2023-12-20T09:32:30;100814.09;;;9.85;100.00
6942;BME280;3510;43.200;27.920;2023-12-20T09:35:11;100836.88;;;10.16;100.00
6942;BME280;3510;43.200;27.920;2023-12-20T09:37:37;100838.88;;;10.20;100.00
6942;BME280;3510;43.200;27.920;2023-12-20T09:40:07;100846.44;;;10.20;100.00
6942;BME280;3510;43.200;27.920;2023-12-20T09:42:43;100835.88;;;10.24;100.00
6942;BME280;3510;43.200;27.920;2023-12-20T09:45:28;100831.66;;;10.33;100.00
6942;BME280;3510;43.200;27.920;2023-12-20T09:48:11;100816.47;;;10.42;100.00
6942;BME280;3510;43.200;27.920;2023-12-20T09:50:40;100805.78;;;10.45;100.00
6942;BME280;3510;43.200;27.920;2023-12-20T09:53:08;100814.50;;;10.58;100.00
6942;BME280;3510;43.200;27.920;2023-12-20T09:55:36;100810.63;;;10.72;100.00
6942;BME280;3510;43.200;27.920;2023-12-20T09:58:04;100808.09;;;10.72;100.00
6942;BME280;3510;43.200;27.920;2023-12-20T10:00:32;100801.94;;;10.89;100.00
6942;BME280;3510;43.200;27.920;2023-12-20T10:03:00;100795.50;;;11.03;100.00
6942;BME280;3510;43.200;27.920;2023-12-20T10:05:28;100802.19;;;10.92;100.00
6942;BME280;3510;43.200;27.920;2023-12-20T10:07:55;100762.53;;;10.69;100.00
6942;BME280;3510;43.200;27.920;2023-12-20T10:10:22;100791.50;;;10.95;100.00
6942;BME280;3510;43.200;27.920;2023-12-20T10:13:04;100790.00;;;10.86;100.00
6942;BME280;3510;43.200;27.920;2023-12-20T10:15:32;100794.13;;;10.96;100.00
6942;BME280;3510;43.200;27.920;2023-12-20T10:17:59;100792.22;;;11.04;100.00
6942;BME280;3510;43.200;27.920;2023-12-20T10:20:27;100788.94;;;11.05;100.00
6942;BME280;3510;43.200;27.920;2023-12-20T10:22:54;100765.56;;;10.96;100.00
6942;BME280;3510;43.200;27.920;2023-12-20T10:25:21;100764.78;;;10.97;100.00
6942;BME280;3510;43.200;27.920;2023-12-20T10:27:49;100773.38;;;10.99;100.00
6942;BME280;3510;43.200;27.920;2023-12-20T10:30:18;100765.19;;;10.91;100.00
6942;BME280;3510;43.200;27.920;2023-12-20T10:32:44;100715.09;;;10.63;100.00
6942;BME280;3510;43.200;27.920;2023-12-20T10:35:11;100758.09;;;10.97;100.00
6942;BME280;3510;43.200;27.920;2023-12-20T10:37:37;100752.19;;;11.07;100.00
6942;BME280;3510;43.200;27.920;2023-12-20T10:40:05;100691.06;;;10.77;100.00
6942;BME280;3510;43.200;27.920;2023-12-20T10:42:32;100743.50;;;11.13;100.00
6942;BME280;3510;43.200;27.920;2023-12-20T10:45:01;100736.72;;;11.12;100.00
6942;BME280;3510;43.200;27.920;2023-12-20T10:47:30;100673.69;;;10.80;100.00
6942;BME280;3510;43.200;27.920;2023-12-20T10:49:59;100692.66;;;10.97;100.00
6942;BME280;3510;43.200;27.920;2023-12-20T10:52:27;100711.13;;;11.08;100.00
6942;BME280;3510;43.200;27.920;2023-12-20T10:54:56;100718.41;;;11.25;100.00
6942;BME280;3510;43.200;27.920;2023-12-20T10:57:26;100728.34;;;11.34;100.00
6942;BME280;3510;43.200;27.920;2023-12-20T10:59:54;100723.69;;;11.38;100.00
6942;BME280;3510;43.200;27.920;2023-12-20T11:02:22;100718.84;;;11.52;100.00
6942;BME280;3510;43.200;27.920;2023-12-20T11:04:58;100666.81;;;11.20;100.00
6942;BME280;3510;43.200;27.920;2023-12-20T11:07:33;100678.25;;;11.49;100.00
6942;BME280;3510;43.200;27.920;2023-12-20T11:10:09;100706.19;;;11.62;100.00
6942;BME280;3510;43.200;27.920;2023-12-20T11:12:41;100708.34;;;11.90;100.00
6942;BME280;3510;43.200;27.920;2023-12-20T11:15:11;100605.28;;;11.38;100.00
6942;BME280;3510;43.200;27.920;2023-12-20T11:17:39;100691.09;;;11.94;100.00
6942;BME280;3510;43.200;27.920;2023-12-20T11:20:09;100661.22;;;11.78;100.00
6942;BME280;3510;43.200;27.920;2023-12-20T11:22:37;100678.25;;;11.81;100.00
6942;BME280;3510;43.200;27.920;2023-12-20T11:25:08;100672.81;;;11.65;100.00
6942;BME280;3510;43.200;27.920;2023-12-20T11:27:41;100677.28;;;11.47;100.00
6942;BME280;3510;43.200;27.920;2023-12-20T11:30:09;100678.78;;;11.45;100.00
6942;BME280;3510;43.200;27.920;2023-12-20T11:32:36;100668.81;;;11.24;100.00
6942;BME280;3510;43.200;27.920;2023-12-20T11:35:19;100671.59;;;11.17;100.00
6942;BME280;3510;43.200;27.920;2023-12-20T11:37:46;100660.00;;;11.19;100.00
6942;BME280;3510;43.200;27.920;2023-12-20T11:40:18;100656.59;;;11.19;100.00
6942;BME280;3510;43.200;27.920;2023-12-20T11:42:49;100652.44;;;11.19;100.00
6942;BME280;3510;43.200;27.920;2023-12-20T11:45:18;100587.44;;;10.93;100.00
6942;BME280;3510;43.200;27.920;2023-12-20T11:47:48;100614.13;;;11.23;100.00
6942;BME280;3510;43.200;27.920;2023-12-20T11:50:17;100585.75;;;11.04;100.00
6942;BME280;3510;43.200;27.920;2023-12-20T11:52:44;100632.59;;;11.34;100.00
6942;BME280;3510;43.200;27.920;2023-12-20T11:55:11;100626.13;;;11.48;100.00
6942;BME280;3510;43.200;27.920;2023-12-20T11:57:38;100635.09;;;11.44;100.00
6942;BME280;3510;43.200;27.920;2023-12-20T12:00:05;100533.41;;;11.00;100.00
6942;BME280;3510;43.200;27.920;2023-12-20T12:02:32;100626.75;;;11.67;100.00
6942;BME280;3510;43.200;27.920;2023-12-20T12:04:59;100618.97;;;11.64;100.00
6942;BME280;3510;43.200;27.920;2023-12-20T12:07:27;100621.00;;;11.68;100.00
6942;BME280;3510;43.200;27.920;2023-12-20T12:09:54;100576.06;;;11.52;100.00
6942;BME280;3510;43.200;27.920;2023-12-20T12:12:21;100614.41;;;11.70;100.00
6942;BME280;3510;43.200;27.920;2023-12-20T12:14:49;100570.63;;;11.36;100.00
6942;BME280;3510;43.200;27.920;2023-12-20T12:17:18;100582.59;;;11.38;100.00
6942;BME280;3510;43.200;27.920;2023-12-20T12:19:45;100548.44;;;11.20;100.00
6942;BME280;3510;43.200;27.920;2023-12-20T12:22:13;100592.44;;;11.35;100.00
6942;BME280;3510;43.200;27.920;2023-12-20T12:24:44;100567.66;;;11.20;100.00
6942;BME280;3510;43.200;27.920;2023-12-20T12:27:12;100573.81;;;11.23;100.00
6942;BME280;3510;43.200;27.920;2023-12-20T12:29:39;100577.13;;;11.22;100.00
6942;BME280;3510;43.200;27.920;2023-12-20T12:32:06;100581.25;;;11.32;100.00
6942;BME280;3510;43.200;27.920;2023-12-20T12:34:34;100574.31;;;11.29;100.00
6942;BME280;3510;43.200;27.920;2023-12-20T12:37:01;100570.91;;;11.29;100.00
6942;BME280;3510;43.200;27.920;2023-12-20T12:39:29;100559.72;;;11.25;100.00
6942;BME280;3510;43.200;27.920;2023-12-20T12:41:58;100546.53;;;11.18;100.00
6942;BME280;3510;43.200;27.920;2023-12-20T12:44:25;100514.06;;;10.88;100.00
6942;BME280;3510;43.200;27.920;2023-12-20T12:46:52;100552.91;;;11.02;100.00
6942;BME280;3510;43.200;27.920;2023-12-20T12:49:20;100530.66;;;10.97;100.00
6942;BME280;3510;43.200;27.920;2023-12-20T12:51:47;100508.97;;;10.77;100.00
6942;BME280;3510;43.200;27.920;2023-12-20T12:54:14;100532.63;;;11.01;100.00
6942;BME280;3510;43.200;27.920;2023-12-20T12:56:42;100525.59;;;10.97;100.00
6942;BME280;3510;43.200;27.920;2023-12-20T12:59:10;100502.88;;;10.85;100.00
6942;BME280;3510;43.200;27.920;2023-12-20T13:01:37;100496.97;;;10.84;100.00
6942;BME280;3510;43.200;27.920;2023-12-20T13:04:04;100427.97;;;10.38;100.00
6942;BME280;3510;43.200;27.920;2023-12-20T13:06:36;100463.69;;;10.66;100.00
6942;BME280;3510;43.200;27.920;2023-12-20T13:09:03;100506.72;;;11.02;100.00
6942;BME280;3510;43.200;27.920;2023-12-20T13:11:31;100525.59;;;10.97;100.00
6942;BME280;3510;43.200;27.920;2023-12-20T13:13:58;100476.44;;;10.68;100.00
6942;BME280;3510;43.200;27.920;2023-12-20T13:16:26;100517.63;;;10.80;100.00
6942;BME280;3510;43.200;27.920;2023-12-20T13:18:53;100526.44;;;10.75;100.00